Flight Track Log - Related Links

Times and Time Zones

All times are in EDT time to prevent confusion due to time zone crossing. See the N57870 flight status page for this flight to view local times or setup timezone preferences in your user account.

Time Position Orientation Groundspeed Altitude Reporting Facility
EDT Latitude Longitude Course Direction KTS MPH feet Rate Location/Type
Sun 06:59:12 PM 19.7380 -159.3150 280° West 21 24  Level FlightAware ADS-B
Sun 07:09:42 PM 19.7300 -159.3170 267° West 73 Level FlightAware ADS-B
Sun 07:11:12 PM 19.7240 -159.2590 96° East 203 Level FlightAware ADS-B
Sun 07:13:00 PM 19.8542 -159.0765 53° Northeast  Level Estimated
Sun 07:14:00 PM 19.9264 -158.9750 53° Northeast  Level Estimated
Sun 07:14:22 PM 19.7240 -156.0470 53° Northeast  Level FlightAware ADS-B
Sun 07:14:37 PM 19.7270 -156.0470 360° North 960 Level FlightAware ADS-B
Sun 07:15:07 PM 19.7420 -156.0450 North 1,200 Level FlightAware ADS-B
Sun 07:15:37 PM 19.7700 -156.0440 North 185 213 1,200 1,286 Climbing FlightAware ADS-B
Sun 07:16:17 PM 19.8030 -156.0430 North 196 226 1,500 1,535 Climbing FlightAware ADS-B
Sun 07:16:20 PM 19.8000 -156.0333 52° Northeast 230 265 2,300 3,000 Climbing Honolulu Center
Sun 07:16:47 PM 19.8450 -156.0420 North 246 283 3,000 1,839 Climbing FlightAware ADS-B
Sun 07:17:22 PM 19.8810 -156.0420 360° North 246 283 4,200 1,933 Climbing FlightAware ADS-B
Sun 07:18:17 PM 19.9510 -156.0350 North 282 325 5,900 1,862 Climbing FlightAware ADS-B
Sun 07:18:20 PM 19.9500 -156.0167 North 320 368 6,000 300 Climbing Honolulu Center
Sun 07:18:37 PM 19.9700 -156.0120 49° Northeast 282 325 6,000  Level FlightAware ADS-B
Sun 07:19:02 PM 19.9910 -155.9910 43° Northeast 282 325 6,000 136 Level FlightAware ADS-B
Sun 07:19:21 PM 19.9833 -155.9500 62° Northeast 270 311 6,100 1,747 Climbing Honolulu Center
Sun 07:20:21 PM 20.0333 -155.8833 51° Northeast 290 334 8,300 2,050 Climbing Honolulu Center
Sun 07:21:00 PM 20.1413 -155.7893 52° Northeast  Level Estimated
Sun 07:21:21 PM 20.1000 -155.8167 43° Northeast 310 357 10,200  Level Honolulu Center
Sun 07:22:21 PM 20.1833 -155.7833 21° North 350 403 11,600 1,500 Climbing Honolulu Center
Sun 07:23:21 PM 20.2833 -155.7500 17° North 380 437 13,200 1,450 Climbing Honolulu Center
Sun 07:24:21 PM 20.3833 -155.7000 25° Northeast 410 472 14,500 1,250 Climbing Honolulu Center
Sun 07:25:21 PM 20.5000 -155.6667 15° North 420 483 15,700 1,400 Climbing Honolulu Center
Sun 07:26:21 PM 20.6167 -155.6000 28° Northeast 450 518 17,300 1,600 Climbing Honolulu Center
Sun 07:27:21 PM 20.7333 -155.5667 15° North 450 518 18,900 1,500 Climbing Honolulu Center
Sun 07:28:21 PM 20.8500 -155.5167 22° Northeast 460 529 20,300 1,400 Climbing Honolulu Center
Sun 07:29:21 PM 20.9833 -155.4667 19° North 460 529 21,700 1,250 Climbing Honolulu Center
Sun 07:30:21 PM 21.1000 -155.4167 22° Northeast 470 541 22,800 1,091 Climbing Honolulu Center
Sun 07:31:22 PM 21.2333 -155.3667 19° North 480 552 23,900 942 Climbing Honolulu Center
Sun 07:32:22 PM 21.3500 -155.3167 22° Northeast 490 564 24,700 1,000 Climbing Honolulu Center
Sun 07:33:22 PM 21.4833 -155.2667 19° North 500 575 25,900 1,200 Climbing Honolulu Center
Sun 07:34:22 PM 21.6167 -155.2167 19° North 500 575 27,100 1,250 Climbing Honolulu Center
Sun 07:35:22 PM 21.7500 -155.1500 25° Northeast 500 575 28,400 1,350 Climbing Honolulu Center
Sun 07:36:22 PM 21.8833 -155.1000 19° North 490 564 29,800 1,400 Climbing Honolulu Center
Sun 07:37:22 PM 22.0000 -155.0500 22° Northeast 480 552 31,200 1,091 Climbing Honolulu Center
Sun 07:38:23 PM 22.1333 -155.0000 19° North 480 552 32,000 400 Climbing Honolulu Center
Sun 07:39:22 PM 22.2500 -154.9500 22° Northeast 480 552 32,000  Level Honolulu Center
Sun 07:40:23 PM 22.3500 -154.8500 43° Northeast 490 564 32,000  Level Honolulu Center
Sun 07:41:23 PM 22.4500 -154.7500 43° Northeast 480 552 32,000  Level Honolulu Center
Sun 07:42:23 PM 22.5500 -154.6333 47° Northeast 490 564 32,000  Level Honolulu Center
Sun 07:44:00 PM 22.6668 -154.4588 54° Northeast  Level Estimated
Sun 07:51:00 PM 23.1705 -153.6994 54° Northeast  Level Estimated
Sun 07:52:00 PM 23.2422 -153.5904 54° Northeast  Level Estimated
Sun 07:53:00 PM 23.3138 -153.4814 54° Northeast  Level Estimated
Sun 07:54:00 PM 23.3853 -153.3722 54° Northeast  Level Estimated
Sun 07:55:00 PM 23.4567 -153.2629 55° Northeast  Level Estimated
Sun 07:56:00 PM 23.5281 -153.1535 55° Northeast  Level Estimated
Sun 07:56:58 PM 23.7833 -153.3667 57° Northeast 470 541 32,000  Level Oakland Oceanic (ODAPS)
Sun 07:57:00 PM 23.5994 -153.0440 55° Northeast  Level Estimated
Sun 07:58:00 PM 23.6706 -152.9343 55° Northeast  Level Estimated
Sun 07:59:00 PM 23.7417 -152.8245 55° Northeast  Level Estimated
Sun 08:00:00 PM 23.8127 -152.7146 55° Northeast  Level Estimated
Sun 08:01:00 PM 23.8837 -152.6046 55° Northeast  Level Estimated
Sun 08:02:00 PM 23.9543 -152.4950 55° Northeast  Level Estimated
Sun 08:03:00 PM 24.4229 -152.2854 57° Northeast 470 541 32,000  Level FlightAware Transoceanic
Sun 08:04:00 PM 24.4934 -152.1646 57° Northeast 470 541 32,000  Level FlightAware Transoceanic
Sun 08:05:00 PM 24.5639 -152.0436 57° Northeast 470 541 32,000  Level FlightAware Transoceanic
Sun 08:06:00 PM 24.6343 -151.9225 57° Northeast 470 541 32,000  Level FlightAware Transoceanic
Sun 08:07:00 PM 24.7046 -151.8013 57° Northeast 470 541 32,000  Level FlightAware Transoceanic
Sun 08:08:00 PM 24.7748 -151.6800 58° Northeast 470 541 32,000  Level FlightAware Transoceanic
Sun 08:09:00 PM 24.8449 -151.5585 58° Northeast 470 541 32,000  Level FlightAware Transoceanic
Sun 08:10:00 PM 24.9149 -151.4368 58° Northeast 470 541 32,000  Level FlightAware Transoceanic
Sun 08:11:00 PM 24.9848 -151.3151 58° Northeast 470 541 32,000  Level FlightAware Transoceanic
Sun 08:12:00 PM 25.0546 -151.1932 58° Northeast 470 541 32,000  Level FlightAware Transoceanic
Sun 08:13:00 PM 25.1243 -151.0711 58° Northeast 470 541 32,000  Level FlightAware Transoceanic
Sun 08:14:00 PM 25.1939 -150.9489 58° Northeast 470 541 32,000  Level FlightAware Transoceanic
Sun 08:15:00 PM 25.2634 -150.8266 58° Northeast 470 541 32,000  Level FlightAware Transoceanic
Sun 08:16:00 PM 25.3328 -150.7041 58° Northeast 470 541 32,000  Level FlightAware Transoceanic
Sun 08:17:00 PM 25.4021 -150.5815 58° Northeast 470 541 32,000  Level FlightAware Transoceanic
Sun 08:18:00 PM 25.4713 -150.4588 58° Northeast 470 541 32,000  Level FlightAware Transoceanic
Sun 08:19:00 PM 25.5404 -150.3359 58° Northeast 470 541 32,000  Level FlightAware Transoceanic
Sun 08:20:00 PM 25.6094 -150.2129 58° Northeast 470 541 32,000  Level FlightAware Transoceanic
Sun 08:21:00 PM 25.6783 -150.0897 58° Northeast 470 541 32,000  Level FlightAware Transoceanic
Sun 08:22:00 PM 25.7471 -149.9664 58° Northeast 470 541 32,000  Level FlightAware Transoceanic
Sun 08:23:00 PM 25.8158 -149.8429 58° Northeast 470 541 32,000  Level FlightAware Transoceanic
Sun 08:24:00 PM 25.8844 -149.7193 58° Northeast 470 541 32,000  Level FlightAware Transoceanic
Sun 08:25:00 PM 25.9528 -149.5956 58° Northeast 470 541 32,000  Level FlightAware Transoceanic
Sun 08:26:00 PM 26.0212 -149.4717 58° Northeast 470 541 32,000  Level FlightAware Transoceanic
Sun 08:27:00 PM 26.0895 -149.3477 59° Northeast 470 541 32,000  Level FlightAware Transoceanic
Sun 08:28:00 PM 26.1576 -149.2235 59° Northeast 470 541 32,000  Level FlightAware Transoceanic
Sun 08:29:00 PM 26.2257 -149.0992 59° Northeast 470 541 32,000  Level FlightAware Transoceanic
Sun 08:30:00 PM 26.2936 -148.9747 59° Northeast 470 541 32,000  Level FlightAware Transoceanic
Sun 08:31:00 PM 26.3615 -148.8501 59° Northeast 470 541 32,000  Level FlightAware Transoceanic
Sun 08:32:00 PM 26.4292 -148.7253 59° Northeast 470 541 32,000  Level FlightAware Transoceanic
Sun 08:33:00 PM 26.4968 -148.6004 59° Northeast 470 541 32,000  Level FlightAware Transoceanic
Sun 08:34:00 PM 26.5643 -148.4754 59° Northeast 470 541 32,000  Level FlightAware Transoceanic
Sun 08:35:00 PM 26.6317 -148.3502 59° Northeast 470 541 32,000  Level FlightAware Transoceanic
Sun 08:36:00 PM 26.6990 -148.2248 59° Northeast 470 541 32,000  Level FlightAware Transoceanic
Sun 08:37:00 PM 26.7662 -148.0993 59° Northeast 470 541 32,000  Level FlightAware Transoceanic
Sun 08:38:00 PM 26.8333 -147.9737 59° Northeast 470 541 32,000  Level FlightAware Transoceanic
Sun 08:39:00 PM 26.9002 -147.8479 59° Northeast 470 541 32,000  Level FlightAware Transoceanic
Sun 08:40:00 PM 26.9671 -147.7219 59° Northeast 470 541 32,000  Level FlightAware Transoceanic
Sun 08:41:00 PM 27.0338 -147.5958 59° Northeast 470 541 32,000  Level FlightAware Transoceanic
Sun 08:42:00 PM 27.1004 -147.4696 59° Northeast 470 541 32,000  Level FlightAware Transoceanic
Sun 08:43:00 PM 27.1669 -147.3432 59° Northeast 470 541 32,000  Level FlightAware Transoceanic
Sun 08:44:00 PM 27.2333 -147.2167 64° Northeast 470 541 32,000  Level FlightAware Transoceanic
Sun 08:45:00 PM 27.2887 -147.0886 64° Northeast 470 541 32,000  Level FlightAware Transoceanic
Sun 08:46:00 PM 27.3440 -146.9603 64° Northeast 470 541 32,000  Level FlightAware Transoceanic
Sun 08:46:47 PM 27.2333 -147.2167 64° Northeast 465 535 32,000  Level Oakland Oceanic (ODAPS)
Sun 08:47:00 PM 27.3992 -146.8320 64° Northeast 470 541 32,000  Level FlightAware Transoceanic
Sun 08:48:00 PM 27.4542 -146.7035 64° Northeast 470 541 32,000  Level FlightAware Transoceanic
Sun 08:49:00 PM 27.5091 -146.5749 64° Northeast 470 541 32,000  Level FlightAware Transoceanic
Sun 08:50:00 PM 27.5639 -146.4462 64° Northeast 470 541 32,000  Level FlightAware Transoceanic
Sun 08:51:00 PM 27.6186 -146.3173 64° Northeast 470 541 32,000  Level FlightAware Transoceanic
Sun 08:52:00 PM 27.6732 -146.1883 65° Northeast 470 541 32,000  Level FlightAware Transoceanic
Sun 08:53:00 PM 27.7372 -146.0364 65° Northeast 465 535 32,000  Level FlightAware Transoceanic
Sun 08:54:00 PM 27.7926 -145.9046 65° Northeast 465 535 32,000  Level FlightAware Transoceanic
Sun 08:55:00 PM 27.8478 -145.7726 65° Northeast 465 535 32,000  Level FlightAware Transoceanic
Sun 08:56:00 PM 27.9029 -145.6405 65° Northeast 465 535 32,000  Level FlightAware Transoceanic
Sun 08:57:00 PM 27.9579 -145.5083 65° Northeast 465 535 32,000  Level FlightAware Transoceanic
Sun 08:58:00 PM 28.0128 -145.3760 65° Northeast 465 535 32,000  Level FlightAware Transoceanic
Sun 08:59:00 PM 28.0675 -145.2435 65° Northeast 465 535 32,000  Level FlightAware Transoceanic
Sun 09:00:00 PM 28.1221 -145.1109 65° Northeast 465 535 32,000  Level FlightAware Transoceanic
Sun 09:01:00 PM 28.1766 -144.9781 65° Northeast 465 535 32,000  Level FlightAware Transoceanic
Sun 09:02:00 PM 28.2310 -144.8452 65° Northeast 465 535 32,000  Level FlightAware Transoceanic
Sun 09:03:00 PM 28.2852 -144.7122 65° Northeast 465 535 32,000  Level FlightAware Transoceanic
Sun 09:04:00 PM 28.3393 -144.5790 65° Northeast 465 535 32,000  Level FlightAware Transoceanic
Sun 09:05:00 PM 28.3933 -144.4457 65° Northeast 465 535 32,000  Level FlightAware Transoceanic
Sun 09:06:00 PM 28.4471 -144.3123 65° Northeast 465 535 32,000  Level FlightAware Transoceanic
Sun 09:07:00 PM 28.5008 -144.1787 65° Northeast 465 535 32,000  Level FlightAware Transoceanic
Sun 09:08:00 PM 28.5544 -144.0450 66° East 465 535 32,000  Level FlightAware Transoceanic
Sun 09:09:00 PM 28.6078 -143.9112 66° East 465 535 32,000  Level FlightAware Transoceanic
Sun 09:10:00 PM 28.6611 -143.7772 66° East 465 535 32,000  Level FlightAware Transoceanic
Sun 09:11:00 PM 28.7143 -143.6431 66° East 465 535 32,000  Level FlightAware Transoceanic
Sun 09:12:00 PM 28.7674 -143.5088 66° East 465 535 32,000  Level FlightAware Transoceanic
Sun 09:13:00 PM 28.8203 -143.3745 66° East 465 535 32,000  Level FlightAware Transoceanic
Sun 09:14:00 PM 28.8731 -143.2399 66° East 465 535 32,000  Level FlightAware Transoceanic
Sun 09:15:00 PM 28.9257 -143.1053 66° East 465 535 32,000  Level FlightAware Transoceanic
Sun 09:16:00 PM 28.9783 -142.9705 66° East 465 535 32,000  Level FlightAware Transoceanic
Sun 09:17:00 PM 29.0306 -142.8356 66° East 465 535 32,000  Level FlightAware Transoceanic
Sun 09:18:00 PM 29.0829 -142.7005 66° East 465 535 32,000  Level FlightAware Transoceanic
Sun 09:19:00 PM 29.1350 -142.5653 66° East 465 535 32,000  Level FlightAware Transoceanic
Sun 09:20:00 PM 29.1870 -142.4299 66° East 465 535 32,000  Level FlightAware Transoceanic
Sun 09:21:00 PM 29.2388 -142.2945 66° East 465 535 32,000  Level FlightAware Transoceanic
Sun 09:22:00 PM 29.2905 -142.1588 66° East 465 535 32,000  Level FlightAware Transoceanic
Sun 09:23:00 PM 29.3421 -142.0231 66° East 465 535 32,000  Level FlightAware Transoceanic
Sun 09:24:00 PM 29.3935 -141.8872 67° East 465 535 32,000  Level FlightAware Transoceanic
Sun 09:25:00 PM 29.4448 -141.7512 67° East 465 535 32,000  Level FlightAware Transoceanic
Sun 09:26:00 PM 29.4959 -141.6150 67° East 465 535 32,000  Level FlightAware Transoceanic
Sun 09:27:00 PM 29.5469 -141.4787 67° East 465 535 32,000  Level FlightAware Transoceanic
Sun 09:28:00 PM 29.5978 -141.3423 67° East 465 535 32,000  Level FlightAware Transoceanic
Sun 09:29:00 PM 29.6486 -141.2057 67° East 465 535 32,000  Level FlightAware Transoceanic
Sun 09:30:00 PM 29.6992 -141.0690 67° East 465 535 32,000  Level FlightAware Transoceanic
Sun 09:31:00 PM 29.7496 -140.9321 67° East 465 535 32,000  Level FlightAware Transoceanic
Sun 09:32:00 PM 29.7999 -140.7951 67° East 465 535 32,000  Level FlightAware Transoceanic
Sun 09:33:00 PM 29.8501 -140.6580 67° East 465 535 32,000  Level FlightAware Transoceanic
Sun 09:34:00 PM 29.9001 -140.5207 67° East 465 535 32,000  Level FlightAware Transoceanic
Sun 09:35:00 PM 29.9500 -140.3833 69° East 465 535 32,000  Level FlightAware Transoceanic
Sun 09:36:00 PM 29.9958 -140.2442 69° East 465 535 32,000  Level FlightAware Transoceanic
Sun 09:37:00 PM 30.0415 -140.1049 69° East 465 535 32,000  Level FlightAware Transoceanic
Sun 09:38:00 PM 30.0870 -139.9655 69° East 465 535 32,000  Level FlightAware Transoceanic
Sun 09:39:00 PM 30.1324 -139.8259 69° East 465 535 32,000  Level FlightAware Transoceanic
Sun 09:39:45 PM 29.9500 -140.3833 69° East 465 535 32,000  Level Oakland Oceanic (ODAPS)
Sun 09:40:00 PM 30.1776 -139.6862 70° East 465 535 32,000  Level FlightAware Transoceanic
Sun 09:41:00 PM 30.2227 -139.5464 70° East 465 535 32,000  Level FlightAware Transoceanic
Sun 09:42:00 PM 30.2676 -139.4065 70° East 465 535 32,000  Level FlightAware Transoceanic
Sun 09:43:00 PM 30.3123 -139.2664 70° East 465 535 32,000  Level FlightAware Transoceanic
Sun 09:44:00 PM 30.3570 -139.1263 70° East 465 535 32,000  Level FlightAware Transoceanic
Sun 09:45:00 PM 30.4015 -138.9859 70° East 465 535 32,000  Level FlightAware Transoceanic
Sun 09:46:00 PM 30.4015 -138.9859 70° East 465 535 32,000  Level FlightAware Transoceanic
Sun 09:47:00 PM 30.4458 -138.8455 70° East 465 535 32,000  Level FlightAware Transoceanic
Sun 09:48:00 PM 30.4900 -138.7049 70° East 465 535 32,000  Level FlightAware Transoceanic
Sun 09:49:00 PM 30.5340 -138.5642 70° East 465 535 32,000  Level FlightAware Transoceanic
Sun 09:50:00 PM 30.5779 -138.4234 70° East 465 535 32,000  Level FlightAware Transoceanic
Sun 09:51:00 PM 30.6216 -138.2825 70° East 465 535 32,000  Level FlightAware Transoceanic
Sun 09:52:00 PM 30.6651 -138.1414 70° East 465 535 32,000  Level FlightAware Transoceanic
Sun 09:53:00 PM 30.7086 -138.0002 70° East 465 535 32,000  Level FlightAware Transoceanic
Sun 09:54:00 PM 30.7518 -137.8588 70° East 465 535 32,000  Level FlightAware Transoceanic
Sun 09:55:00 PM 30.7950 -137.7174 71° East 465 535 32,000  Level FlightAware Transoceanic
Sun 09:56:00 PM 30.8379 -137.5758 71° East 465 535 32,000  Level FlightAware Transoceanic
Sun 09:57:00 PM 30.8807 -137.4341 71° East 465 535 32,000  Level FlightAware Transoceanic
Sun 09:58:00 PM 30.9234 -137.2922 71° East 465 535 32,000  Level FlightAware Transoceanic
Sun 09:59:00 PM 30.9659 -137.1503 71° East 465 535 32,000  Level FlightAware Transoceanic
Sun 10:00:00 PM 31.0082 -137.0082 71° East 465 535 32,000  Level FlightAware Transoceanic
Sun 10:01:00 PM 31.0504 -136.8660 71° East 465 535 32,000  Level FlightAware Transoceanic
Sun 10:02:00 PM 31.0924 -136.7236 71° East 465 535 32,000  Level FlightAware Transoceanic
Sun 10:03:00 PM 31.1343 -136.5811 71° East 465 535 32,000  Level FlightAware Transoceanic
Sun 10:04:00 PM 31.1760 -136.4385 71° East 465 535 32,000  Level FlightAware Transoceanic
Sun 10:05:00 PM 31.2175 -136.2958 71° East 465 535 32,000  Level FlightAware Transoceanic
Sun 10:06:00 PM 31.2589 -136.1530 71° East 465 535 32,000  Level FlightAware Transoceanic
Sun 10:07:00 PM 31.3002 -136.0100 71° East 465 535 32,000  Level FlightAware Transoceanic
Sun 10:08:00 PM 31.3413 -135.8669 71° East 465 535 32,000  Level FlightAware Transoceanic
Sun 10:09:00 PM 31.3822 -135.7237 72° East 465 535 32,000  Level FlightAware Transoceanic
Sun 10:10:00 PM 31.4230 -135.5803 72° East 465 535 32,000  Level FlightAware Transoceanic
Sun 10:11:00 PM 31.4636 -135.4369 72° East 465 535 32,000  Level FlightAware Transoceanic
Sun 10:12:00 PM 31.5040 -135.2933 72° East 465 535 32,000  Level FlightAware Transoceanic
Sun 10:13:00 PM 31.5443 -135.1495 72° East 465 535 32,000  Level FlightAware Transoceanic
Sun 10:14:00 PM 31.5844 -135.0057 72° East 465 535 32,000  Level FlightAware Transoceanic
Sun 10:15:00 PM 31.6244 -134.8617 72° East 465 535 32,000  Level FlightAware Transoceanic
Sun 10:16:00 PM 31.6642 -134.7176 72° East 465 535 32,000  Level FlightAware Transoceanic
Sun 10:17:00 PM 31.7038 -134.5734 72° East 465 535 32,000  Level FlightAware Transoceanic
Sun 10:18:00 PM 31.7433 -134.4291 72° East 465 535 32,000  Level FlightAware Transoceanic
Sun 10:19:00 PM 31.7826 -134.2846 72° East 465 535 32,000  Level FlightAware Transoceanic
Sun 10:20:00 PM 31.8217 -134.1400 72° East 465 535 32,000  Level FlightAware Transoceanic
Sun 10:21:00 PM 31.8607 -133.9953 72° East 465 535 32,000  Level FlightAware Transoceanic
Sun 10:22:00 PM 31.8995 -133.8505 73° East 465 535 32,000  Level FlightAware Transoceanic
Sun 10:23:00 PM 31.9382 -133.7056 73° East 465 535 32,000  Level FlightAware Transoceanic
Sun 10:24:00 PM 31.9767 -133.5605 73° East 465 535 32,000  Level FlightAware Transoceanic
Sun 10:25:00 PM 32.0150 -133.4153 73° East 465 535 32,000  Level FlightAware Transoceanic
Sun 10:26:00 PM 32.0532 -133.2700 73° East 465 535 32,000  Level FlightAware Transoceanic
Sun 10:27:00 PM 32.0912 -133.1246 73° East 465 535 32,000  Level FlightAware Transoceanic
Sun 10:28:00 PM 32.1290 -132.9790 73° East 465 535 32,000  Level FlightAware Transoceanic
Sun 10:29:00 PM 32.1667 -132.8333 59° Northeast 465 535 32,000  Level FlightAware Transoceanic
Sun 10:30:00 PM 32.2341 -132.6992 59° Northeast 465 535 32,000  Level FlightAware Transoceanic
Sun 10:30:16 PM 32.1667 -132.8333 59° Northeast 475 547 32,000  Level Oakland Oceanic (ODAPS)
Sun 10:31:00 PM 32.3014 -132.5648 59° Northeast 465 535 32,000  Level FlightAware Transoceanic
Sun 10:32:00 PM 32.3686 -132.4302 59° Northeast 465 535 32,000  Level FlightAware Transoceanic
Sun 10:33:00 PM 32.4357 -132.2955 60° Northeast 465 535 32,000  Level FlightAware Transoceanic
Sun 10:34:00 PM 32.5025 -132.1605 60° Northeast 465 535 32,000  Level FlightAware Transoceanic
Sun 10:35:00 PM 32.5693 -132.0253 60° Northeast 465 535 32,000  Level FlightAware Transoceanic
Sun 10:36:00 PM 32.7024 -131.7543 60° Northeast 475 547 32,000  Level FlightAware Transoceanic
Sun 10:37:00 PM 32.7687 -131.6186 60° Northeast 475 547 32,000  Level FlightAware Transoceanic
Sun 10:38:00 PM 32.8348 -131.4826 60° Northeast 475 547 32,000  Level FlightAware Transoceanic
Sun 10:39:00 PM 32.9008 -131.3464 60° Northeast 475 547 32,000  Level FlightAware Transoceanic
Sun 10:40:00 PM 32.9667 -131.2100 60° Northeast 475 547 32,000  Level FlightAware Transoceanic
Sun 10:41:00 PM 33.0324 -131.0734 60° Northeast 475 547 32,000  Level FlightAware Transoceanic
Sun 10:42:00 PM 33.0980 -130.9366 60° Northeast 475 547 32,000  Level FlightAware Transoceanic
Sun 10:43:00 PM 33.1634 -130.7997 60° Northeast 475 547 32,000  Level FlightAware Transoceanic
Sun 10:44:00 PM 33.2287 -130.6625 60° Northeast 475 547 32,000  Level FlightAware Transoceanic
Sun 10:45:00 PM 33.2938 -130.5251 60° Northeast 475 547 32,000  Level FlightAware Transoceanic
Sun 10:46:00 PM 33.3588 -130.3874 61° Northeast 475 547 32,000  Level FlightAware Transoceanic
Sun 10:47:00 PM 33.4236 -130.2496 61° Northeast 475 547 32,000  Level FlightAware Transoceanic
Sun 10:48:00 PM 33.4883 -130.1116 61° Northeast 475 547 32,000  Level FlightAware Transoceanic
Sun 10:49:00 PM 33.5528 -129.9734 61° Northeast 475 547 32,000  Level FlightAware Transoceanic
Sun 10:50:00 PM 33.6171 -129.8349 61° Northeast 475 547 32,000  Level FlightAware Transoceanic
Sun 10:51:00 PM 33.6813 -129.6963 61° Northeast 475 547 32,000  Level FlightAware Transoceanic
Sun 10:52:00 PM 33.7454 -129.5575 61° Northeast 475 547 32,000  Level FlightAware Transoceanic
Sun 10:53:00 PM 33.8093 -129.4184 61° Northeast 475 547 32,000  Level FlightAware Transoceanic
Sun 10:54:00 PM 33.8730 -129.2791 61° Northeast 475 547 32,000  Level FlightAware Transoceanic
Sun 10:55:00 PM 33.9366 -129.1397 61° Northeast 475 547 32,000  Level FlightAware Transoceanic
Sun 10:56:00 PM 34.0000 -129.0000 57° Northeast 475 547 32,000  Level FlightAware Transoceanic
Sun 10:57:00 PM 34.0711 -128.8691 57° Northeast 475 547 32,000  Level FlightAware Transoceanic
Sun 10:58:00 PM 34.1421 -128.7380 57° Northeast 475 547 32,000  Level FlightAware Transoceanic
Sun 10:59:00 PM 34.2130 -128.6067 57° Northeast 475 547 32,000  Level FlightAware Transoceanic
Sun 11:00:00 PM 34.2837 -128.4752 57° Northeast 475 547 32,000  Level FlightAware Transoceanic
Sun 11:01:00 PM 34.3543 -128.3434 57° Northeast 475 547 32,000  Level FlightAware Transoceanic
Sun 11:02:00 PM 34.4248 -128.2114 57° Northeast 475 547 32,000  Level FlightAware Transoceanic
Sun 11:03:00 PM 34.4950 -128.0792 57° Northeast 475 547 32,000  Level FlightAware Transoceanic
Sun 11:03:10 PM 34.0000 -129.0000 57° Northeast 466 536 32,000  Level Oakland Oceanic (ODAPS)
Sun 11:04:00 PM 34.5652 -127.9468 57° Northeast 475 547 32,000  Level FlightAware Transoceanic
Sun 11:05:00 PM 34.6352 -127.8142 57° Northeast 475 547 32,000  Level FlightAware Transoceanic
Sun 11:06:00 PM 34.7051 -127.6813 57° Northeast 475 547 32,000  Level FlightAware Transoceanic
Sun 11:07:00 PM 34.7748 -127.5482 58° Northeast 475 547 32,000  Level FlightAware Transoceanic
Sun 11:08:00 PM 34.8444 -127.4149 58° Northeast 475 547 32,000  Level FlightAware Transoceanic
Sun 11:09:00 PM 34.9138 -127.2813 58° Northeast 466 536 32,000  Level FlightAware Transoceanic
Sun 11:10:00 PM 34.9831 -127.1475 58° Northeast 466 536 32,000  Level FlightAware Transoceanic
Sun 11:11:00 PM 35.0522 -127.0135 58° Northeast 466 536 32,000  Level FlightAware Transoceanic
Sun 11:12:00 PM 35.1212 -126.8793 58° Northeast 466 536 32,000  Level FlightAware Transoceanic
Sun 11:13:00 PM 35.1901 -126.7449 58° Northeast 466 536 32,000  Level FlightAware Transoceanic
Sun 11:14:00 PM 35.2588 -126.6102 58° Northeast 466 536 32,000  Level FlightAware Transoceanic
Sun 11:15:00 PM 35.3273 -126.4753 58° Northeast 466 536 32,000  Level FlightAware Transoceanic
Sun 11:16:00 PM 35.3957 -126.3401 58° Northeast 466 536 32,000  Level FlightAware Transoceanic
Sun 11:17:00 PM 35.4640 -126.2048 58° Northeast 466 536 32,000  Level FlightAware Transoceanic
Sun 11:18:00 PM 35.5321 -126.0692 58° Northeast 466 536 32,000  Level FlightAware Transoceanic
Sun 11:19:00 PM 35.6000 -125.9333 58° Northeast 466 536 32,000  Level FlightAware Transoceanic
Sun 11:20:00 PM 35.6654 -125.8046 58° Northeast 466 536 32,000  Level FlightAware Transoceanic
Sun 11:20:05 PM 35.6289 -125.8939 58° Northeast 459 528 32,000  Level Oakland Center
Sun 11:21:00 PM 35.7306 -125.6756 58° Northeast 466 536 32,000  Level FlightAware Transoceanic
Sun 11:21:06 PM 35.6944 -125.7583 59° Northeast 461 531 32,000  Level Oakland Center
Sun 11:22:00 PM 35.7957 -125.5463 58° Northeast 466 536 32,000  Level FlightAware Transoceanic
Sun 11:22:07 PM 35.7589 -125.6258 59° Northeast 458 527 32,000  Level Oakland Center
Sun 11:23:00 PM 35.8606 -125.4169 58° Northeast 466 536 32,000  Level FlightAware Transoceanic
Sun 11:23:08 PM 35.8403 -125.4683 57° Northeast 456 525 32,000  Level Oakland Center
Sun 11:24:00 PM 35.9255 -125.2873 58° Northeast 466 536 32,000 -885 Level FlightAware Transoceanic
Sun 11:24:09 PM 35.8978 -125.3325 62° Northeast 448 516 31,100  Descending Oakland Center
Sun 11:25:00 PM 35.9902 -125.1575 58° Northeast 466 536 32,000 -885 Climbing FlightAware Transoceanic
Sun 11:25:10 PM 35.9572 -125.2106 59° Northeast 424 488 30,200 -2,113 Descending Oakland Center
Sun 11:26:11 PM 36.0150 -125.0953 58° Northeast 403 464 29,500 -787 Descending Oakland Center
Sun 11:27:12 PM 36.0703 -124.9856 58° Northeast 382 440 28,600 -738 Descending Oakland Center
Sun 11:28:13 PM 36.1219 -124.8781 59° Northeast 369 425 28,000 -295 Descending Oakland Center
Sun 11:29:14 PM 36.1758 -124.7681 59° Northeast 372 428 28,000  Level Oakland Center
Sun 11:30:15 PM 36.2361 -124.6628 55° Northeast 374 430 28,000  Level Oakland Center
Sun 11:31:15 PM 36.2986 -124.5567 54° Northeast 379 436 28,000  Level Oakland Center
Sun 11:32:16 PM 36.3597 -124.4517 54° Northeast 378 435 28,000  Level Oakland Center
Sun 11:33:17 PM 36.4228 -124.3456 54° Northeast 381 438 28,000  Level Oakland Center
Sun 11:34:18 PM 36.4819 -124.2353 56° Northeast 383 441 28,000  Level Oakland Center
Sun 11:35:19 PM 36.5447 -124.1325 53° Northeast 376 433 28,000  Level Oakland Center
Sun 11:36:20 PM 36.6161 -124.0044 55° Northeast 376 433 28,000 -344 Level Oakland Center
Sun 11:37:21 PM 36.6775 -123.8983 54° Northeast 377 434 27,300 -1,556 Descending Oakland Center
Sun 11:43:32 PM 37.1470 -123.4680 54° Northeast 317 365 16,800 -1,670 Descending FlightAware ADS-B
Sun 11:44:07 PM 37.1910 -123.4410 26° Northeast 313 360 16,000 -975 Descending FlightAware ADS-B
Sun 11:44:52 PM 37.2460 -123.4070 26° Northeast 310 357 15,500 -316 Descending FlightAware ADS-B
Sun 11:45:42 PM 37.3010 -123.3730 26° Northeast 310 357 15,500  Level FlightAware ADS-B
Sun 11:46:22 PM 37.3440 -123.3460 27° Northeast 310 357 15,500  Level FlightAware ADS-B
Sun 11:47:02 PM 37.3880 -123.3190 26° Northeast 310 357 15,500  Level FlightAware ADS-B
Sun 11:47:42 PM 37.4320 -123.2920 26° Northeast 310 357 15,500  Level FlightAware ADS-B
Sun 11:48:22 PM 37.4760 -123.2660 25° Northeast 310 357 15,500 -1,950 Level FlightAware ADS-B
Sun 11:51:02 PM 37.2800 -122.7690 116° Southeast 293 337 9,000 -2,053 Descending FlightAware ADS-B
Sun 11:51:32 PM 37.2910 -122.7220 74° East 291 335 9,000  Level FlightAware ADS-B
Sun 11:51:47 PM 37.2970 -122.6950 74° East 290 334 9,000  Level FlightAware ADS-B
Sun 11:52:22 PM 37.3090 -122.6450 73° East 291 335 9,000  Level FlightAware ADS-B
Sun 11:52:52 PM 37.3190 -122.6030 73° East 291 335 9,000  Level FlightAware ADS-B
Sun 11:53:02 PM 37.3250 -122.5730 76° East 293 337 9,000 -900 Level FlightAware ADS-B
Sun 11:53:52 PM 37.3430 -122.4950 74° East 291 335 8,100 -800 Descending FlightAware ADS-B
Sun 11:54:17 PM 37.3530 -122.4540 73° East 285 328 8,000 -120 Descending FlightAware ADS-B
Sun 11:54:42 PM 37.3620 -122.4150 74° East 285 328 8,000  Level FlightAware ADS-B
Sun 11:55:17 PM 37.3750 -122.3590 74° East 253 291 8,000  Level FlightAware ADS-B
Sun 11:55:42 PM 37.3820 -122.3260 75° East 240 276 8,000  Level FlightAware ADS-B
Sun 11:55:57 PM 37.3870 -122.3060 73° East 239 275 8,000  Level FlightAware ADS-B
Sun 11:56:27 PM 37.3950 -122.2690 75° East 245 282 8,000 109 Level FlightAware ADS-B
Sun 11:56:52 PM 37.3970 -122.2320 86° East 230 265 8,100 -436 Climbing FlightAware ADS-B
Sun 11:57:22 PM 37.4000 -122.1930 84° East 210 242 7,600 -1,091 Descending FlightAware ADS-B
Sun 11:57:47 PM 37.4110 -122.1670 62° Northeast 202 232 7,100 -1,200 Descending FlightAware ADS-B
Sun 11:58:17 PM 37.4250 -122.1380 59° Northeast 198 228 6,500 -1,200 Descending FlightAware ADS-B
Sun 11:58:32 PM 37.4360 -122.1260 41° Northeast 192 221 6,200 -1,050 Descending FlightAware ADS-B
Sun 11:58:57 PM 37.4540 -122.1150 26° Northeast 182 209 5,800 -1,114 Descending FlightAware ADS-B
Sun 11:59:42 PM 37.4890 -122.1170 357° North 174 200 4,900 -1,114 Descending FlightAware ADS-B
Mon 12:00:07 AM 37.5040 -122.1330 320° Northwest 170 196 4,500 -1,091 Descending FlightAware ADS-B
Mon 12:00:37 AM 37.5210 -122.1500 322° Northwest 170 196 3,900 -1,333 Descending FlightAware ADS-B
Mon 12:00:52 AM 37.5290 -122.1630 308° West 170 196 3,500 -1,371 Descending FlightAware ADS-B
Mon 12:01:12 AM 37.5370 -122.1800 301° West 169 194 3,100 -1,050 Descending FlightAware ADS-B
Mon 12:01:32 AM 37.5430 -122.1960 295° West 165 190 2,800 -800 Descending FlightAware ADS-B
Mon 12:02:12 AM 37.5560 -122.2260 299° West 159 183 2,300 -600 Descending FlightAware ADS-B
Mon 12:03:02 AM 37.5730 -122.2690 297° West 157 181 1,900 -480 Descending FlightAware ADS-B

Login

Don't have an account? Register now (free) for customized features, flight alerts, and more!